Time;durP1;ratioP1;P1;durP2;ratioP2;P2;SDS_P1;SDS_P2;PMS_P1;PMS_P2;Temp;Humidity;BMP_temperature;BMP_pressure;BME280_temperature;BME280_humidity;BME280_pressure;Samples;Min_cycle;Max_cycle;Signal;HPM_P1;HPM_P2
2023/04/06 00:02:08;;;;;;;82.03;45.90;;;;;;;16.82;75.04;98830.59;4945204;29;20054;-58
2023/04/06 00:04:37;;;;;;;76.82;42.33;;;;;;;16.87;74.42;98838.75;4942934;28;20085;-59
2023/04/06 00:07:07;;;;;;;79.03;42.83;;;;;;;16.78;74.13;98836.63;4942775;29;20047;-59
2023/04/06 00:09:36;;;;;;;75.05;43.30;;;;;;;16.93;74.21;98848.53;4941110;28;20055;-59
2023/04/06 00:12:06;;;;;;;71.55;41.70;;;;;;;16.88;75.21;98843.06;4939146;29;20043;-59
2023/04/06 00:14:35;;;;;;;76.20;42.13;;;;;;;16.64;75.21;98848.59;4941978;29;20514;-60
2023/04/06 00:17:05;;;;;;;76.55;40.47;;;;;;;16.60;75.76;98854.38;4946449;28;20540;-61
2023/04/06 00:19:34;;;;;;;70.22;40.03;;;;;;;16.75;76.69;98864.66;4946139;29;20047;-61
2023/04/06 00:22:04;;;;;;;73.20;38.80;;;;;;;16.77;75.96;98861.75;4946130;28;20831;-61
2023/04/06 00:24:33;;;;;;;77.05;39.85;;;;;;;16.60;75.84;98867.72;4946144;29;20054;-61
2023/04/06 00:27:02;;;;;;;71.93;40.17;;;;;;;16.55;76.43;98864.09;4946226;28;20102;-61
2023/04/06 00:29:32;;;;;;;65.75;38.70;;;;;;;16.46;76.58;98866.25;4946412;28;20051;-61
2023/04/06 00:32:01;;;;;;;72.40;39.80;;;;;;;16.58;76.89;98866.34;4931703;28;20463;-61
2023/04/06 00:34:31;;;;;;;73.63;38.97;;;;;;;16.57;76.69;98872.69;4945831;29;20135;-61
2023/04/06 00:37:01;;;;;;;69.05;39.83;;;;;;;16.47;76.86;98873.22;4945529;29;20043;-61
2023/04/06 00:39:30;;;;;;;70.00;38.38;;;;;;;16.37;77.52;98869.47;4928680;29;20373;-59
2023/04/06 00:42:00;;;;;;;65.63;37.28;;;;;;;16.30;77.67;98869.56;4930629;29;20039;-59
2023/04/06 00:44:31;;;;;;;68.97;38.80;;;;;;;16.46;77.26;98879.63;4945099;29;20070;-59
2023/04/06 00:47:01;;;;;;;60.88;37.15;;;;;;;16.39;76.88;98888.78;4943826;29;20426;-59
2023/04/06 00:49:32;;;;;;;65.03;37.45;;;;;;;16.35;77.33;98891.06;4945128;28;20078;-60
2023/04/06 00:52:02;;;;;;;68.78;36.83;;;;;;;16.32;77.53;98894.22;4931417;29;20070;-60
2023/04/06 00:54:32;;;;;;;66.65;36.38;;;;;;;16.32;77.99;98902.22;4916344;29;20051;-60
2023/04/06 00:57:01;;;;;;;64.15;36.78;;;;;;;16.28;77.97;98881.53;4930191;29;20047;-57
2023/04/06 00:59:32;;;;;;;60.80;35.17;;;;;;;16.44;78.06;98899.59;4927562;29;20052;-60
2023/04/06 01:02:04;;;;;;;59.45;32.58;;;;;;;16.52;76.65;98902.78;4938116;29;20414;-60
2023/04/06 01:04:40;;;;;;;62.00;32.50;;;;;;;16.43;77.36;98904.13;4944206;29;20047;-60
2023/04/06 01:07:16;;;;;;;57.63;32.88;;;;;;;16.42;77.10;98907.84;4943525;29;20057;-60
2023/04/06 01:09:59;;;;;;;59.45;31.10;;;;;;;16.64;76.28;98899.41;4923968;29;20476;-60
2023/04/06 01:12:30;;;;;;;62.50;32.72;;;;;;;16.61;76.27;98903.31;4917002;29;20425;-60
2023/04/06 01:15:04;;;;;;;55.25;31.55;;;;;;;16.60;76.68;98910.53;4907341;29;20056;-61
2023/04/06 01:17:36;;;;;;;52.30;31.55;;;;;;;16.63;76.09;98914.63;4923658;29;20054;-61
2023/04/06 01:20:11;;;;;;;56.55;30.92;;;;;;;16.78;77.20;98906.97;4924500;29;20163;-61
2023/04/06 01:22:41;;;;;;;58.00;31.50;;;;;;;16.78;76.12;98904.31;4932169;29;20062;-61
2023/04/06 01:25:12;;;;;;;54.95;31.15;;;;;;;16.98;76.22;98904.03;4926984;29;20055;-60
2023/04/06 01:27:51;;;;;;;51.72;28.13;;;;;;;17.00;72.88;98908.09;4944439;28;20733;-61
2023/04/06 01:30:24;;;;;;;50.28;28.83;;;;;;;17.05;74.77;98915.44;4957578;28;20130;-61
2023/04/06 01:33:00;;;;;;;51.72;28.13;;;;;;;17.24;74.31;98918.88;4945986;28;20130;-61
2023/04/06 01:35:49;;;;;;;51.10;27.73;;;;;;;17.25;73.29;98915.16;4924944;29;20067;-61
2023/04/06 01:38:20;;;;;;;52.42;29.17;;;;;;;17.22;73.09;98923.63;4924899;29;20630;-61
2023/04/06 01:40:50;;;;;;;54.63;28.90;;;;;;;17.25;72.06;98924.00;4922563;29;20384;-61
2023/04/06 01:43:22;;;;;;;56.47;28.15;;;;;;;17.32;70.86;98923.88;4924954;29;20512;-61
2023/04/06 01:46:18;;;;;;;55.28;29.45;;;;;;;17.65;72.41;98945.63;4941364;29;20105;-62
2023/04/06 01:48:48;;;;;;;51.35;28.95;;;;;;;17.79;72.91;98932.84;4916136;29;20067;-61
2023/04/06 01:51:38;;;;;;;55.42;29.35;;;;;;;17.86;69.98;98930.84;4934810;28;20059;-60
2023/04/06 01:54:11;;;;;;;49.67;28.20;;;;;;;17.93;69.49;98934.19;4926607;28;20048;-60
2023/04/06 01:57:00;;;;;;;56.15;29.25;;;;;;;18.26;70.35;98931.72;4944282;28;20138;-59
2023/04/06 01:59:39;;;;;;;59.30;30.35;;;;;;;18.23;68.67;98934.84;4921751;29;20432;-60
2023/04/06 02:02:28;;;;;;;59.08;29.73;;;;;;;18.46;68.05;98941.22;4933895;28;20054;-61
2023/04/06 02:05:04;;;;;;;59.28;30.05;;;;;;;18.72;68.46;98946.09;4954339;28;20047;-61
2023/04/06 02:07:34;;;;;;;54.67;28.92;;;;;;;18.89;68.46;98949.66;4927188;29;20047;-61
2023/04/06 02:10:12;;;;;;;51.38;27.80;;;;;;;19.16;67.04;98958.72;4924803;29;20051;-61
2023/04/06 02:12:43;;;;;;;52.97;27.25;;;;;;;19.72;64.70;98957.00;4933743;28;20051;-60
2023/04/06 02:15:19;;;;;;;51.25;26.88;;;;;;;20.55;63.39;98958.72;4941435;29;20078;-61
2023/04/06 02:17:49;;;;;;;40.22;23.48;;;;;;;20.92;59.08;98967.78;4944034;29;20074;-60
2023/04/06 02:20:18;;;;;;;43.10;24.95;;;;;;;21.52;60.08;98974.88;4931175;29;20056;-60
2023/04/06 02:22:47;;;;;;;43.97;24.27;;;;;;;22.14;61.11;98967.00;4944464;28;20063;-62
2023/04/06 02:25:17;;;;;;;39.15;22.48;;;;;;;22.63;57.21;98962.13;4927180;29;20078;-62
2023/04/06 02:27:46;;;;;;;47.38;22.55;;;;;;;23.18;57.96;98977.72;4941745;29;20047;-61
2023/04/06 02:30:16;;;;;;;36.53;20.77;;;;;;;23.34;58.25;98977.72;4921639;29;20480;-61
2023/04/06 02:32:45;;;;;;;37.47;18.95;;;;;;;23.30;54.64;98977.44;4948534;29;20043;-61
2023/04/06 02:35:14;;;;;;;29.98;17.92;;;;;;;23.88;53.68;98975.34;4930232;29;20662;-61
2023/04/06 02:37:47;;;;;;;26.30;16.30;;;;;;;24.29;49.70;98976.13;4928120;29;20051;-61
2023/04/06 02:40:16;;;;;;;37.95;16.27;;;;;;;24.33;49.83;98982.59;4931419;29;20380;-61
2023/04/06 02:42:46;;;;;;;33.55;17.30;;;;;;;24.19;49.60;98982.34;4927643;29;20060;-61
2023/04/06 02:45:17;;;;;;;25.95;14.85;;;;;;;24.20;51.07;98992.09;4930408;29;20142;-60
2023/04/06 02:47:48;;;;;;;24.95;12.52;;;;;;;24.46;48.37;98995.56;4947233;28;20054;-61
2023/04/06 02:50:17;;;;;;;23.58;13.60;;;;;;;24.15;48.75;98990.22;4947081;28;20165;-61
2023/04/06 02:52:55;;;;;;;21.98;11.32;;;;;;;24.33;48.10;99002.38;4954883;28;20057;-60
2023/04/06 02:55:24;;;;;;;23.55;9.38;;;;;;;24.58;43.08;99004.19;4934939;29;20054;-61
2023/04/06 02:57:54;;;;;;;18.02;9.27;;;;;;;24.46;43.06;99003.69;4930905;29;20102;-62
2023/04/06 03:00:28;;;;;;;19.73;8.60;;;;;;;24.49;41.67;99000.41;4928563;29;20047;-60
2023/04/06 03:02:58;;;;;;;18.20;8.27;;;;;;;24.54;47.24;99006.63;4927127;28;20147;-60
2023/04/06 03:05:27;;;;;;;15.68;9.02;;;;;;;23.89;45.16;98999.44;4925054;29;20051;-61
2023/04/06 03:07:58;;;;;;;15.85;8.25;;;;;;;23.38;45.23;99000.44;4947703;28;20051;-61
2023/04/06 03:10:37;;;;;;;17.23;9.43;;;;;;;23.50;46.82;99003.75;4930299;29;20801;-60
2023/04/06 03:13:07;;;;;;;20.17;9.10;;;;;;;23.25;48.04;98999.88;4946717;28;20102;-61
2023/04/06 03:15:49;;;;;;;17.85;9.73;;;;;;;23.44;47.42;99008.31;4962598;28;20443;-60
2023/04/06 03:18:25;;;;;;;17.77;8.55;;;;;;;23.53;48.60;99014.00;4962490;28;20059;-61
2023/04/06 03:20:57;;;;;;;14.00;8.20;;;;;;;23.73;49.91;99020.25;4955407;28;20047;-59
2023/04/06 03:23:34;;;;;;;14.45;8.75;;;;;;;24.24;47.78;99017.53;4949769;28;20058;-59
2023/04/06 03:26:04;;;;;;;15.18;8.02;;;;;;;23.86;45.76;99024.28;4929761;29;20043;-58
2023/04/06 03:28:34;;;;;;;13.57;6.88;;;;;;;24.05;49.13;99022.66;4946905;29;20061;-60
2023/04/06 03:31:06;;;;;;;16.70;7.57;;;;;;;24.04;46.69;99026.44;4932371;29;20047;-59
2023/04/06 03:33:51;;;;;;;13.77;7.18;;;;;;;23.66;46.50;99030.53;4945405;28;20058;-59
2023/04/06 03:36:30;;;;;;;13.45;6.95;;;;;;;23.94;44.78;99026.44;4929955;29;20066;-58
2023/04/06 03:39:00;;;;;;;11.65;6.40;;;;;;;24.18;44.89;99024.03;4930323;29;20049;-58
2023/04/06 03:41:33;;;;;;;16.90;7.72;;;;;;;24.07;44.34;99034.06;4929857;29;20454;-58
2023/04/06 03:44:32;;;;;;;10.25;5.53;;;;;;;24.08;44.25;99030.25;4931021;28;20145;-59
2023/04/06 03:47:02;;;;;;;14.95;4.72;;;;;;;24.05;45.09;99040.81;4929413;28;20057;-58
2023/04/06 03:49:31;;;;;;;11.48;5.20;;;;;;;24.26;43.23;99033.50;4930519;29;20138;-59
2023/04/06 03:52:01;;;;;;;10.45;4.03;;;;;;;24.19;44.60;99038.38;4929728;29;20141;-58
2023/04/06 03:54:30;;;;;;;13.35;6.45;;;;;;;24.06;45.04;99042.44;4946424;28;20059;-59
2023/04/06 03:57:00;;;;;;;17.80;6.10;;;;;;;23.87;46.09;99049.47;4947033;29;20062;-58
2023/04/06 03:59:30;;;;;;;16.75;6.68;;;;;;;24.19;46.26;99055.44;4946793;29;20065;-58
2023/04/06 04:01:59;;;;;;;12.75;6.95;;;;;;;24.30;47.04;99057.03;4946707;29;21497;-57
2023/04/06 04:04:29;;;;;;;13.55;6.57;;;;;;;24.29;46.20;99060.84;4961884;28;20047;-59
2023/04/06 04:06:59;;;;;;;14.60;6.45;;;;;;;23.91;43.56;99056.75;4945700;28;20066;-59
2023/04/06 04:09:29;;;;;;;11.73;6.32;;;;;;;24.07;46.37;99063.81;4929990;29;20477;-58
2023/04/06 04:11:59;;;;;;;10.82;5.28;;;;;;;24.40;45.79;99072.47;4929070;29;20087;-59
2023/04/06 04:14:30;;;;;;;11.75;5.55;;;;;;;24.37;44.09;99075.72;4943394;28;20054;-59
2023/04/06 04:16:59;;;;;;;11.93;6.18;;;;;;;24.35;44.34;99077.88;4933091;28;20055;-60
2023/04/06 04:19:29;;;;;;;10.18;6.38;;;;;;;24.54;44.46;99079.75;4946728;28;20130;-60
2023/04/06 04:21:59;;;;;;;12.63;5.95;;;;;;;24.46;45.00;99083.03;4944879;28;20057;-60
2023/04/06 04:24:33;;;;;;;10.60;5.80;;;;;;;24.85;44.00;99079.66;4944381;28;20074;-62
2023/04/06 04:27:04;;;;;;;16.40;7.30;;;;;;;25.13;44.83;99081.78;4943990;29;20051;-63
2023/04/06 04:29:35;;;;;;;13.10;4.57;;;;;;;25.21;42.68;99085.81;4930241;29;20047;-61
2023/04/06 04:32:08;;;;;;;10.27;5.13;;;;;;;25.26;43.94;99073.03;4921896;29;20055;-61
2023/04/06 04:34:41;;;;;;;10.85;4.35;;;;;;;25.25;39.36;99073.31;4931180;29;20146;-61
2023/04/06 04:37:19;;;;;;;12.43;4.65;;;;;;;25.54;40.54;99074.25;4947043;28;20055;-62
2023/04/06 04:39:52;;;;;;;11.02;4.88;;;;;;;25.99;40.71;99067.69;4929096;29;20047;-62
2023/04/06 04:42:22;;;;;;;12.88;5.32;;;;;;;26.56;41.57;99072.34;4928858;29;20066;-62
2023/04/06 04:44:55;;;;;;;9.32;4.55;;;;;;;26.14;39.09;99073.00;4925595;29;20063;-61
2023/04/06 04:47:38;;;;;;;9.60;4.45;;;;;;;26.55;38.71;99069.94;4909204;29;20130;-61
2023/04/06 04:50:08;;;;;;;9.05;5.30;;;;;;;27.09;40.20;99070.41;4934062;28;20055;-61
2023/04/06 04:52:41;;;;;;;12.10;5.30;;;;;;;27.59;40.32;99071.66;4928490;29;20439;-62
2023/04/06 04:55:17;;;;;;;13.95;5.28;;;;;;;27.71;40.92;99073.94;4928331;29;20051;-63
2023/04/06 04:57:53;;;;;;;8.32;2.80;;;;;;;27.63;35.45;99083.59;4928578;29;20047;-61
2023/04/06 05:00:31;;;;;;;4.28;2.22;;;;;;;27.50;36.08;99087.03;4923806;29;20063;-60
2023/04/06 05:03:01;;;;;;;7.63;2.67;;;;;;;28.41;37.38;99084.81;4928015;29;20086;-59
2023/04/06 05:05:34;;;;;;;10.60;3.85;;;;;;;28.78;38.45;99090.13;4942936;29;20531;-61
2023/04/06 05:08:05;;;;;;;6.85;3.00;;;;;;;28.65;34.97;99087.38;4943395;29;20073;-60
2023/04/06 05:10:43;;;;;;;5.72;2.70;;;;;;;28.34;34.56;99079.75;4928406;29;20065;-62
2023/04/06 05:13:13;;;;;;;10.13;4.07;;;;;;;28.91;38.37;99086.59;4925715;29;20054;-62
2023/04/06 05:15:45;;;;;;;8.10;3.53;;;;;;;29.39;34.93;99083.44;4909817;29;20492;-61
2023/04/06 05:18:27;;;;;;;11.00;4.07;;;;;;;28.87;37.94;99082.88;4931397;29;20278;-62
2023/04/06 05:20:59;;;;;;;15.77;3.20;;;;;;;28.93;36.27;99078.13;4926697;29;20058;-61
2023/04/06 05:23:43;;;;;;;7.53;2.85;;;;;;;28.82;32.91;99085.69;4942796;29;20096;-61
2023/04/06 05:26:12;;;;;;;9.27;2.75;;;;;;;28.72;33.68;99085.91;4941967;28;20051;-61
2023/04/06 05:28:44;;;;;;;7.07;3.40;;;;;;;29.27;33.89;99085.88;4943611;29;20070;-62
2023/04/06 05:31:14;;;;;;;15.35;4.10;;;;;;;28.85;35.08;99084.31;4924083;29;20409;-63
2023/04/06 05:33:48;;;;;;;10.00;3.70;;;;;;;29.39;34.69;99091.63;4926400;29;20074;-64
2023/04/06 05:36:27;;;;;;;9.35;3.38;;;;;;;29.28;34.05;99091.03;4931123;29;20051;-63
2023/04/06 05:38:57;;;;;;;16.40;3.08;;;;;;;29.13;31.45;99085.88;4927656;29;20555;-64
2023/04/06 05:41:35;;;;;;;6.82;2.42;;;;;;;29.41;34.46;99095.69;4927417;29;20058;-62
2023/04/06 05:44:10;;;;;;;5.00;2.72;;;;;;;29.47;30.36;99095.59;4935509;28;20611;-62
2023/04/06 05:46:43;;;;;;;7.65;3.53;;;;;;;29.88;35.61;99099.03;4928429;29;20051;-62
2023/04/06 05:49:16;;;;;;;9.57;3.47;;;;;;;29.83;34.57;99094.44;4927136;29;20049;-62
2023/04/06 05:51:46;;;;;;;10.77;3.78;;;;;;;29.96;34.33;99100.22;4945469;28;20043;-61
2023/04/06 05:54:15;;;;;;;9.77;4.07;;;;;;;30.04;36.02;99092.09;4927988;28;20062;-62
2023/04/06 05:56:48;;;;;;;13.00;4.50;;;;;;;29.88;32.39;99096.28;4946911;28;20054;-64
2023/04/06 05:59:18;;;;;;;12.85;4.85;;;;;;;29.42;30.01;99082.88;4936840;28;20051;-64
2023/04/06 06:01:48;;;;;;;13.00;5.25;;;;;;;29.59;38.40;99083.03;4944203;29;20051;-64
2023/04/06 06:04:19;;;;;;;10.98;4.97;;;;;;;30.16;35.47;99081.41;4946175;29;20073;-62
2023/04/06 06:06:53;;;;;;;15.65;6.95;;;;;;;30.27;32.75;99079.22;4912114;29;20142;-62
2023/04/06 06:09:28;;;;;;;23.40;7.00;;;;;;;29.90;34.13;99080.41;4941238;29;20043;-62
2023/04/06 06:12:16;;;;;;;26.10;7.43;;;;;;;29.73;33.71;99075.59;4941962;28;20069;-62
2023/04/06 06:14:47;;;;;;;14.98;7.20;;;;;;;30.08;33.60;99081.34;4946421;28;20047;-63
2023/04/06 06:17:19;;;;;;;17.73;7.85;;;;;;;30.01;32.71;99076.31;4930422;28;20195;-63
2023/04/06 06:19:50;;;;;;;14.25;7.85;;;;;;;29.33;29.79;99082.78;4929336;28;20874;-63
2023/04/06 06:22:19;;;;;;;14.23;7.70;;;;;;;29.59;31.60;99074.00;4943116;28;20143;-62
2023/04/06 06:24:50;;;;;;;14.98;7.30;;;;;;;29.56;33.24;99074.63;4918496;29;20043;-63
2023/04/06 06:27:21;;;;;;;18.88;10.07;;;;;;;29.61;30.43;99074.53;4929994;29;20051;-62
2023/04/06 06:29:50;;;;;;;25.88;11.00;;;;;;;29.03;34.66;99081.44;4931463;29;20043;-62
2023/04/06 06:32:23;;;;;;;27.50;13.00;;;;;;;29.07;34.22;99078.13;4951041;28;20057;-63
2023/04/06 06:34:54;;;;;;;32.63;16.27;;;;;;;29.66;32.91;99077.13;4931114;29;20049;-65
2023/04/06 06:37:23;;;;;;;32.08;17.15;;;;;;;29.35;31.73;99077.81;4932739;28;20043;-63
2023/04/06 06:39:54;;;;;;;40.67;18.08;;;;;;;29.68;31.97;99080.38;4943145;29;20039;-62
2023/04/06 06:42:23;;;;;;;33.45;16.88;;;;;;;29.82;35.25;99078.41;4929699;29;20134;-62
2023/04/06 06:45:07;;;;;;;26.52;15.05;;;;;;;29.58;32.98;99072.41;4911723;29;20048;-62
2023/04/06 06:47:37;;;;;;;30.75;16.40;;;;;;;29.67;34.31;99074.09;4927887;29;20063;-62
2023/04/06 06:50:08;;;;;;;38.50;23.25;;;;;;;29.07;31.66;99067.22;4927461;28;20235;-63
2023/04/06 06:52:37;;;;;;;33.88;19.55;;;;;;;28.72;32.33;99068.75;4946707;28;20047;-63
2023/04/06 06:55:11;;;;;;;33.60;18.35;;;;;;;28.87;33.06;99066.50;4946241;28;20154;-64
2023/04/06 06:57:42;;;;;;;23.60;13.02;;;;;;;29.30;34.30;99069.72;4928917;29;20048;-63
2023/04/06 07:00:14;;;;;;;22.93;13.40;;;;;;;29.36;34.51;99070.44;4915495;29;20051;-63
2023/04/06 07:02:47;;;;;;;27.80;13.38;;;;;;;28.89;32.42;99077.13;4925385;29;20384;-63
2023/04/06 07:05:18;;;;;;;22.05;11.63;;;;;;;29.22;34.61;99069.59;4946546;29;20103;-62
2023/04/06 07:07:58;;;;;;;19.88;12.50;;;;;;;29.15;32.63;99069.22;4930366;29;20373;-62
2023/04/06 07:10:27;;;;;;;26.50;10.95;;;;;;;29.24;35.69;99065.47;4947458;29;20039;-62
2023/04/06 07:12:57;;;;;;;33.03;12.57;;;;;;;29.12;32.98;99070.63;4947532;28;20498;-62
2023/04/06 07:15:27;;;;;;;19.70;10.65;;;;;;;29.24;34.98;99070.94;4946373;29;20047;-63
2023/04/06 07:17:59;;;;;;;23.95;11.68;;;;;;;29.36;32.87;99065.78;4947049;28;20058;-63
2023/04/06 07:20:29;;;;;;;20.95;11.57;;;;;;;28.90;32.41;99057.72;4939748;28;20047;-63
2023/04/06 07:22:58;;;;;;;19.38;11.05;;;;;;;28.92;35.46;99057.41;4947154;28;20101;-60
2023/04/06 07:25:28;;;;;;;21.95;11.50;;;;;;;28.96;34.34;99055.69;4947340;28;20616;-63
2023/04/06 07:27:57;;;;;;;33.88;11.57;;;;;;;29.26;33.20;99046.06;4947117;28;20050;-63
2023/04/06 07:30:29;;;;;;;22.25;11.77;;;;;;;28.92;33.91;99052.78;4945984;29;20046;-63
2023/04/06 07:33:00;;;;;;;25.60;10.13;;;;;;;29.17;36.17;99058.78;4924310;29;20130;-62
2023/04/06 07:35:30;;;;;;;16.40;9.77;;;;;;;29.26;33.31;99046.06;4927391;29;20080;-62
2023/04/06 07:38:00;;;;;;;22.75;9.55;;;;;;;29.13;33.11;99041.44;4911830;29;20043;-62
2023/04/06 07:40:34;;;;;;;20.38;11.52;;;;;;;28.90;32.89;99043.28;4931633;29;20047;-61
2023/04/06 07:43:04;;;;;;;;;;;;;;;29.14;32.78;99041.13;4929065;29;20051;-62
2023/04/06 07:45:33;;;;;;;21.52;13.63;;;;;;;28.42;31.87;99038.19;4945877;29;19922;-62
2023/04/06 07:48:03;;;;;;;31.70;13.93;;;;;;;28.72;32.75;99042.28;4946143;29;20062;-62
2023/04/06 07:50:33;;;;;;;28.17;14.48;;;;;;;28.97;34.66;99040.97;4929905;29;20500;-62
2023/04/06 07:53:05;;;;;;;24.85;15.23;;;;;;;29.15;34.54;99033.75;4922787;29;20050;-62
2023/04/06 07:55:35;;;;;;;23.98;13.70;;;;;;;29.19;35.95;99037.50;4930369;29;20122;-63
2023/04/06 07:58:06;;;;;;;24.17;13.32;;;;;;;29.03;34.90;99028.84;4944702;29;20051;-63
2023/04/06 08:00:35;;;;;;;23.52;13.18;;;;;;;29.08;35.80;99025.97;4941981;29;20432;-63
2023/04/06 08:03:04;;;;;;;21.65;13.63;;;;;;;29.01;30.87;99028.31;4944089;28;20460;-63
2023/04/06 08:05:35;;;;;;;21.80;10.98;;;;;;;28.90;35.90;99024.22;4946121;29;20047;-63
2023/04/06 08:08:05;;;;;;;20.52;10.63;;;;;;;29.02;32.83;99014.38;4948550;28;20054;-63
2023/04/06 08:10:34;;;;;;;19.80;10.30;;;;;;;29.09;34.09;99013.16;4944873;29;20046;-62
2023/04/06 08:13:04;;;;;;;24.00;10.98;;;;;;;29.20;33.37;99009.91;4941342;28;20062;-62
2023/04/06 08:15:34;;;;;;;19.63;11.90;;;;;;;29.21;32.31;99008.00;4944557;29;20458;-61
2023/04/06 08:18:03;;;;;;;24.02;12.82;;;;;;;29.18;34.17;99012.13;4946530;29;20043;-62
2023/04/06 08:20:33;;;;;;;23.98;12.38;;;;;;;29.25;34.43;99012.53;4946298;28;20047;-62
2023/04/06 08:23:04;;;;;;;23.80;12.63;;;;;;;28.96;31.37;99001.16;4946285;28;20159;-61
2023/04/06 08:25:35;;;;;;;27.77;10.35;;;;;;;28.87;31.05;98992.88;4946322;28;20593;-61
2023/04/06 08:28:09;;;;;;;15.57;9.13;;;;;;;28.92;35.77;99000.16;4945443;28;20743;-62
2023/04/06 08:30:42;;;;;;;;;;;;;;;28.92;34.32;98997.41;4946661;29;20062;-61
2023/04/06 08:33:14;;;;;;;16.75;9.18;;;;;;;28.88;34.06;98991.78;4946288;28;19982;-62
2023/04/06 08:35:43;;;;;;;17.35;7.53;;;;;;;28.92;32.47;98992.78;4937295;29;20058;-61
2023/04/06 08:38:13;;;;;;;16.13;6.97;;;;;;;28.95;33.24;98986.69;4945214;29;20045;-62
2023/04/06 08:40:47;;;;;;;13.00;6.53;;;;;;;28.92;34.59;98986.50;4945208;28;20047;-62
2023/04/06 08:43:19;;;;;;;13.30;6.93;;;;;;;28.74;32.09;98984.72;4945475;28;20059;-61
2023/04/06 08:45:49;;;;;;;18.00;7.00;;;;;;;28.67;30.68;98978.84;4943492;29;20063;-62
2023/04/06 08:48:19;;;;;;;20.45;6.35;;;;;;;28.59;29.62;98980.34;4943934;28;20062;-61
2023/04/06 08:50:49;;;;;;;16.02;6.72;;;;;;;28.72;34.20;98976.06;4944564;28;20047;-61
2023/04/06 08:53:20;;;;;;;14.77;4.82;;;;;;;28.62;29.55;98966.13;4941011;28;20165;-62
2023/04/06 08:55:51;;;;;;;15.38;5.35;;;;;;;28.75;32.50;98959.88;4944453;28;20043;-61
2023/04/06 08:58:22;;;;;;;14.60;7.53;;;;;;;28.81;31.43;98958.66;4944398;28;20046;-62
2023/04/06 09:01:14;;;;;;;11.45;5.07;;;;;;;28.94;31.71;98959.75;4943496;28;20063;-62
2023/04/06 09:03:44;;;;;;;8.90;4.13;;;;;;;28.65;30.20;98949.16;4945267;28;20090;-61
2023/04/06 09:06:14;;;;;;;13.25;4.45;;;;;;;28.74;31.70;98943.81;4944954;28;20071;-61
2023/04/06 09:08:44;;;;;;;11.50;4.25;;;;;;;28.94;33.60;98943.41;4943018;29;20413;-62
2023/04/06 09:11:15;;;;;;;8.95;4.13;;;;;;;28.89;31.52;98938.03;4918176;29;20142;-62
2023/04/06 09:13:56;;;;;;;12.35;3.88;;;;;;;28.89;31.80;98932.59;4945062;28;20066;-61
2023/04/06 09:16:28;;;;;;;8.90;3.88;;;;;;;28.79;32.08;98933.63;4941793;29;20055;-61
2023/04/06 09:19:05;;;;;;;11.25;3.78;;;;;;;28.81;31.86;98925.16;4942623;28;20051;-62
2023/04/06 09:21:35;;;;;;;12.88;4.13;;;;;;;28.77;31.73;98926.84;4942100;29;20082;-63
2023/04/06 09:24:07;;;;;;;9.55;3.78;;;;;;;28.53;29.89;98922.44;4941132;28;20062;-61
2023/04/06 09:26:47;;;;;;;15.77;4.40;;;;;;;28.54;32.02;98912.34;4945607;28;20055;-61
2023/04/06 09:29:27;;;;;;;12.25;4.30;;;;;;;28.74;31.71;98917.38;4928126;29;20051;-62
2023/04/06 09:32:04;;;;;;;12.13;4.22;;;;;;;28.80;31.12;98907.16;4944959;28;20446;-61
2023/04/06 09:34:34;;;;;;;8.50;3.83;;;;;;;28.88;30.47;98900.97;4930786;29;20047;-62
2023/04/06 09:37:16;;;;;;;7.93;3.95;;;;;;;28.84;30.40;98897.25;4948574;28;20047;-63
2023/04/06 09:39:46;;;;;;;9.65;4.40;;;;;;;28.77;32.22;98886.75;4948625;29;20050;-63
2023/04/06 09:42:25;;;;;;;12.40;5.05;;;;;;;28.83;31.94;98890.19;4943487;29;20166;-64
2023/04/06 09:44:56;;;;;;;10.65;4.45;;;;;;;28.85;30.34;98886.06;4948947;29;20094;-64
2023/04/06 09:47:26;;;;;;;13.45;4.72;;;;;;;28.83;29.33;98880.09;4947788;28;20071;-64
2023/04/06 09:49:59;;;;;;;11.70;5.20;;;;;;;28.79;29.59;98876.38;4922678;29;20043;-61
2023/04/06 09:52:58;;;;;;;11.95;5.60;;;;;;;28.77;30.78;98867.66;4946502;29;20518;-62
2023/04/06 09:55:35;;;;;;;8.80;4.60;;;;;;;28.70;31.00;98872.75;4943412;28;20604;-62
2023/04/06 09:58:07;;;;;;;11.70;5.05;;;;;;;28.63;29.40;98863.34;4948391;28;20047;-62
2023/04/06 10:00:58;;;;;;;10.05;5.28;;;;;;;28.48;29.96;98867.22;4948797;28;20051;-63
2023/04/06 10:04:22;;;;;;;9.32;5.38;;;;;;;28.52;31.05;98862.75;4949169;28;20078;-65
2023/04/06 10:06:52;;;;;;;14.80;6.10;;;;;;;28.61;32.68;98866.38;4889635;29;20056;-63
2023/04/06 10:09:28;;;;;;;13.30;5.75;;;;;;;28.63;32.85;98856.00;4896749;29;20052;-64
2023/04/06 10:12:04;;;;;;;12.65;5.38;;;;;;;28.62;31.58;98864.47;4919276;28;20042;-64
2023/04/06 10:14:37;;;;;;;13.83;5.87;;;;;;;28.59;32.33;98861.22;4949078;29;20123;-64
2023/04/06 10:17:07;;;;;;;13.65;5.55;;;;;;;28.54;30.61;98858.63;4948859;29;20661;-63
2023/04/06 10:20:00;;;;;;;13.05;5.32;;;;;;;28.48;30.09;98853.59;4948798;28;20412;-62
2023/04/06 10:22:35;;;;;;;17.05;5.90;;;;;;;28.48;30.89;98848.94;4948797;28;20095;-65
2023/04/06 10:25:05;;;;;;;27.38;7.25;;;;;;;28.43;33.01;98842.78;4935719;29;20046;-63
2023/04/06 10:27:34;;;;;;;14.73;6.47;;;;;;;28.46;31.86;98842.97;4948227;29;20447;-65
2023/04/06 10:30:06;;;;;;;12.68;6.25;;;;;;;28.43;33.23;98843.59;4947864;28;20058;-63
2023/04/06 10:32:39;;;;;;;18.92;6.85;;;;;;;28.38;32.05;98832.81;4924913;29;20394;-62
2023/04/06 10:35:10;;;;;;;15.60;6.28;;;;;;;28.32;32.45;98833.25;4946323;28;20141;-63
2023/04/06 10:38:00;;;;;;;13.63;6.68;;;;;;;28.36;32.94;98832.31;4968231;28;20471;-63
2023/04/06 10:40:34;;;;;;;13.45;6.45;;;;;;;28.36;33.14;98834.25;4952648;28;20945;-63
2023/04/06 10:43:23;;;;;;;13.88;6.43;;;;;;;28.30;33.69;98830.00;4927567;29;20598;-62
2023/04/06 10:46:01;;;;;;;13.10;5.75;;;;;;;28.32;31.87;98833.25;4947245;29;20075;-64
2023/04/06 10:48:43;;;;;;;13.88;6.03;;;;;;;28.27;31.20;98831.44;4947127;29;20138;-65
2023/04/06 10:51:17;;;;;;;18.90;6.53;;;;;;;28.24;33.35;98829.28;4945685;29;20051;-61
2023/04/06 10:53:48;;;;;;;13.32;5.88;;;;;;;28.21;32.23;98826.38;4946407;29;20051;-62
2023/04/06 10:56:23;;;;;;;9.83;5.50;;;;;;;28.14;31.20;98826.81;4945616;29;20130;-62
2023/04/06 10:58:57;;;;;;;8.60;5.38;;;;;;;28.13;31.57;98822.47;4947516;28;20043;-63
2023/04/06 11:01:27;;;;;;;15.88;5.07;;;;;;;28.07;29.77;98818.19;4946013;28;20047;-63
2023/04/06 11:04:01;;;;;;;11.98;5.07;;;;;;;28.03;31.32;98818.00;4947715;28;20051;-63
2023/04/06 11:06:32;;;;;;;13.60;5.20;;;;;;;27.99;31.82;98808.00;4947848;28;20075;-63
2023/04/06 11:09:01;;;;;;;10.18;4.97;;;;;;;27.98;29.95;98809.91;4947799;28;20047;-62
2023/04/06 11:11:31;;;;;;;13.52;5.20;;;;;;;27.95;31.28;98805.09;4947326;28;20364;-62
2023/04/06 11:14:01;;;;;;;12.70;4.85;;;;;;;27.88;32.01;98814.78;4947313;29;20055;-62
2023/04/06 11:16:32;;;;;;;13.50;4.57;;;;;;;27.78;32.72;98814.97;4946867;29;20129;-61
2023/04/06 11:19:06;;;;;;;10.40;4.63;;;;;;;27.75;31.61;98816.38;4946869;29;20106;-64
2023/04/06 11:21:47;;;;;;;10.98;4.10;;;;;;;27.76;31.10;98806.28;4947694;28;20055;-62
2023/04/06 11:24:24;;;;;;;10.82;4.90;;;;;;;27.75;33.22;98810.13;4945309;28;20057;-61
2023/04/06 11:26:57;;;;;;;11.30;5.13;;;;;;;27.72;33.18;98814.25;4950459;28;20051;-61
2023/04/06 11:29:30;;;;;;;11.48;4.38;;;;;;;27.75;32.75;98807.41;4946981;29;20391;-62
2023/04/06 11:32:01;;;;;;;9.38;3.90;;;;;;;27.73;32.29;98813.16;4940047;29;20788;-64
2023/04/06 11:34:35;;;;;;;12.27;4.07;;;;;;;27.66;32.81;98812.75;4947172;28;20047;-63
2023/04/06 11:37:09;;;;;;;7.20;3.75;;;;;;;27.57;32.71;98807.19;4946990;28;20047;-63
2023/04/06 11:39:42;;;;;;;12.15;4.13;;;;;;;27.56;32.84;98818.38;4946846;28;20039;-65
2023/04/06 11:42:12;;;;;;;14.48;3.50;;;;;;;27.48;33.09;98806.28;4932858;28;20063;-64
2023/04/06 11:44:49;;;;;;;19.83;3.80;;;;;;;27.43;32.89;98819.94;4943212;29;20137;-64
2023/04/06 11:47:18;;;;;;;13.25;4.10;;;;;;;27.36;32.76;98819.50;4944909;29;20561;-61
2023/04/06 11:49:48;;;;;;;13.48;4.00;;;;;;;27.31;33.53;98814.16;4946815;29;20077;-62
2023/04/06 11:52:20;;;;;;;7.45;3.97;;;;;;;27.26;33.56;98811.53;4944032;29;20055;-61